createdAt,value
2023-05-05T00:00:26.140Z,2405.00
2023-05-05T00:01:26.164Z,2428.00
2023-05-05T00:02:26.257Z,2423.00
2023-05-05T00:03:26.342Z,2418.00
2023-05-05T00:04:26.238Z,2422.00
2023-05-05T00:05:26.262Z,2426.00
2023-05-05T00:06:26.294Z,2440.00
2023-05-05T00:07:26.322Z,2437.00
2023-05-05T00:08:26.415Z,2432.00
2023-05-05T00:09:26.407Z,2439.00
2023-05-05T00:10:26.444Z,2441.00
2023-05-05T00:11:26.469Z,2433.00
2023-05-05T00:12:26.470Z,2448.00
2023-05-05T00:13:26.505Z,2448.00
2023-05-05T00:14:26.533Z,2429.00
2023-05-05T00:15:26.602Z,2432.00
2023-05-05T00:16:26.671Z,2430.00
2023-05-05T00:17:26.678Z,2420.00
2023-05-05T00:18:26.737Z,2440.00
2023-05-05T00:19:26.710Z,2446.00
2023-05-05T00:20:26.770Z,2486.00
2023-05-05T00:21:26.808Z,2451.00
2023-05-05T00:22:26.850Z,2463.00
2023-05-05T00:23:26.927Z,2486.00
2023-05-05T00:24:26.931Z,2489.00
2023-05-05T00:25:26.948Z,2524.00
2023-05-05T00:26:27.008Z,2542.00
2023-05-05T00:27:27.031Z,2538.00
2023-05-05T00:28:27.075Z,2549.00
2023-05-05T00:29:27.103Z,2531.00
2023-05-05T00:30:27.149Z,2535.00
2023-05-05T00:31:27.239Z,2520.00
2023-05-05T00:32:27.256Z,2525.00
2023-05-05T00:33:27.277Z,2520.00
2023-05-05T00:34:27.317Z,2534.00
2023-05-05T00:35:27.384Z,2547.00
2023-05-05T00:36:27.413Z,2557.00
2023-05-05T00:37:27.473Z,2550.00
2023-05-05T00:38:27.503Z,2545.00
2023-05-05T00:39:27.548Z,2562.00
2023-05-05T00:40:27.578Z,2573.00
2023-05-05T00:41:27.604Z,2571.00
2023-05-05T00:42:27.666Z,2564.00
2023-05-05T00:43:27.690Z,2580.00
2023-05-05T00:44:27.712Z,2561.00
2023-05-05T00:45:27.761Z,2611.00
2023-05-05T00:46:27.919Z,2630.00
2023-05-05T00:47:27.898Z,2631.00
2023-05-05T00:48:27.938Z,2663.00
2023-05-05T00:49:27.944Z,2664.00
2023-05-05T00:50:27.969Z,2667.00
2023-05-05T00:51:27.982Z,2650.00
2023-05-05T00:52:27.992Z,2666.00
2023-05-05T00:53:28.040Z,2685.00
2023-05-05T00:54:28.058Z,2703.00
2023-05-05T00:55:28.115Z,2626.00
2023-05-05T00:56:28.143Z,2681.00
2023-05-05T00:57:28.173Z,2706.00
2023-05-05T00:58:28.205Z,2701.00
2023-05-05T00:59:28.229Z,2696.00
2023-05-05T01:00:28.261Z,2685.00
2023-05-05T01:01:28.413Z,2697.00
2023-05-05T01:02:28.390Z,2692.00
2023-05-05T01:03:28.404Z,2665.00
2023-05-05T01:04:28.363Z,2663.00
2023-05-05T01:05:28.416Z,2689.00
2023-05-05T01:06:28.404Z,2692.00
2023-05-05T01:07:28.463Z,2695.00
2023-05-05T01:08:28.491Z,2675.00
2023-05-05T01:09:28.519Z,2678.00
2023-05-05T01:10:28.568Z,2705.00
2023-05-05T01:11:28.593Z,2709.00
2023-05-05T01:12:28.622Z,2710.00
2023-05-05T01:13:28.615Z,2719.00
2023-05-05T01:14:28.642Z,2694.00
2023-05-05T01:15:28.679Z,2687.00
2023-05-05T01:16:28.772Z,2675.00
2023-05-05T01:17:28.755Z,2686.00
2023-05-05T01:18:28.750Z,2689.00
2023-05-05T01:19:28.792Z,2697.00
2023-05-05T01:20:28.851Z,2719.00
2023-05-05T01:21:28.867Z,2729.00
2023-05-05T01:22:28.889Z,2717.00
2023-05-05T01:23:28.937Z,2726.00
2023-05-05T01:24:28.977Z,2688.00
2023-05-05T01:25:29.016Z,2648.00
2023-05-05T01:26:29.058Z,2603.00
2023-05-05T01:27:29.058Z,2612.00
2023-05-05T01:28:29.079Z,2652.00
2023-05-05T01:29:29.112Z,2678.00
2023-05-05T01:30:29.135Z,2664.00
2023-05-05T01:31:29.168Z,2685.00
2023-05-05T01:32:29.338Z,2714.00
2023-05-05T01:33:29.251Z,2713.00
2023-05-05T01:34:29.298Z,2672.00
2023-05-05T01:35:29.359Z,2698.00
2023-05-05T01:36:29.380Z,2701.00
2023-05-05T01:37:29.419Z,2686.00
2023-05-05T01:38:29.444Z,2693.00
2023-05-05T01:39:29.481Z,2680.00
2023-05-05T01:40:29.517Z,2693.00
2023-05-05T01:41:29.542Z,2682.00
2023-05-05T01:42:29.593Z,2698.00
2023-05-05T01:43:29.627Z,2684.00
2023-05-05T01:44:29.694Z,2694.00
2023-05-05T01:45:29.763Z,2724.00
2023-05-05T01:46:29.758Z,2710.00
2023-05-05T01:47:29.791Z,2748.00
2023-05-05T01:48:29.841Z,2755.00
2023-05-05T01:49:29.820Z,2743.00
2023-05-05T01:50:29.835Z,2704.00
2023-05-05T01:51:29.870Z,2719.00
2023-05-05T01:52:29.897Z,2731.00
2023-05-05T01:53:29.879Z,2732.00
2023-05-05T01:54:29.924Z,2721.00
2023-05-05T01:55:29.962Z,2743.00
2023-05-05T01:56:29.974Z,2746.00
2023-05-05T01:57:30.020Z,2746.00
2023-05-05T01:58:30.043Z,2730.00
2023-05-05T01:59:30.109Z,2774.00
2023-05-05T02:00:30.117Z,2776.00
2023-05-05T02:01:30.202Z,2743.00
2023-05-05T02:02:30.204Z,2753.00
2023-05-05T02:03:30.246Z,2744.00
2023-05-05T02:04:30.216Z,2711.00
2023-05-05T02:05:30.248Z,2694.00
2023-05-05T02:06:30.255Z,2709.00
2023-05-05T02:07:30.279Z,2686.00
2023-05-05T02:08:30.343Z,2728.00
2023-05-05T02:09:30.331Z,2747.00
2023-05-05T02:10:30.320Z,2751.00
2023-05-05T02:11:30.353Z,2735.00
2023-05-05T02:12:30.423Z,2757.00
2023-05-05T02:13:30.454Z,2747.00
2023-05-05T02:14:30.461Z,2713.00
2023-05-05T02:15:30.496Z,2747.00
2023-05-05T02:16:30.493Z,2741.00
2023-05-05T02:17:30.569Z,2747.00
2023-05-05T02:18:30.562Z,2723.00
2023-05-05T02:19:30.578Z,2707.00
2023-05-05T02:20:30.565Z,2718.00
2023-05-05T02:21:30.613Z,2715.00
2023-05-05T02:22:30.597Z,2697.00
2023-05-05T02:23:30.624Z,2682.00
2023-05-05T02:24:30.650Z,2698.00
2023-05-05T02:25:30.670Z,2730.00
2023-05-05T02:26:30.727Z,2739.00
2023-05-05T02:27:30.765Z,2704.00
2023-05-05T02:28:30.777Z,2708.00
2023-05-05T02:29:30.798Z,2719.00
2023-05-05T02:30:30.824Z,2718.00
2023-05-05T02:31:30.900Z,2733.00
2023-05-05T02:32:30.904Z,2734.00
2023-05-05T02:33:30.910Z,2727.00
2023-05-05T02:34:30.944Z,2713.00
2023-05-05T02:35:31.000Z,2712.00
2023-05-05T02:36:31.009Z,2698.00
2023-05-05T02:37:31.039Z,2690.00
2023-05-05T02:38:31.072Z,2703.00
2023-05-05T02:39:31.118Z,2678.00
2023-05-05T02:40:31.123Z,2692.00
2023-05-05T02:41:31.144Z,2697.00
2023-05-05T02:42:31.151Z,2713.00
2023-05-05T02:43:31.202Z,2737.00
2023-05-05T02:44:31.222Z,2726.00
2023-05-05T02:45:31.258Z,2694.00
2023-05-05T02:46:31.302Z,2699.00
2023-05-05T02:47:31.320Z,2691.00
2023-05-05T02:48:31.328Z,2702.00
2023-05-05T02:49:31.367Z,2698.00
2023-05-05T02:50:31.366Z,2710.00
2023-05-05T02:51:31.396Z,2722.00
2023-05-05T02:52:31.432Z,2711.00
2023-05-05T02:53:31.459Z,2726.00
2023-05-05T02:54:31.515Z,2721.00
2023-05-05T02:55:31.508Z,2722.00
2023-05-05T02:56:31.532Z,2720.00
2023-05-05T02:57:31.558Z,2737.00
2023-05-05T02:58:31.596Z,2735.00
2023-05-05T02:59:31.607Z,2730.00
2023-05-05T03:00:31.630Z,2721.00
2023-05-05T03:01:31.676Z,2729.00
2023-05-05T03:02:31.767Z,2716.00
2023-05-05T03:03:31.810Z,2714.00
2023-05-05T03:04:31.734Z,2669.00
2023-05-05T03:05:31.762Z,2684.00
2023-05-05T03:06:31.757Z,2689.00
2023-05-05T03:07:31.788Z,2688.00
2023-05-05T03:08:31.796Z,2676.00
2023-05-05T03:09:31.816Z,2691.00
2023-05-05T03:10:31.827Z,2696.00
2023-05-05T03:11:31.864Z,2697.00
2023-05-05T03:12:31.922Z,2690.00
2023-05-05T03:13:31.916Z,2666.00
2023-05-05T03:14:33.426Z,2680.00
2023-05-05T03:15:32.032Z,2656.00
2023-05-05T03:16:32.068Z,2614.00
2023-05-05T03:17:32.118Z,2586.00
2023-05-05T03:18:32.064Z,2610.00
2023-05-05T03:19:32.120Z,2639.00
2023-05-05T03:20:32.135Z,2671.00
2023-05-05T03:21:32.124Z,2662.00
2023-05-05T03:22:32.061Z,2673.00
2023-05-05T03:23:32.119Z,2667.00
2023-05-05T03:24:32.086Z,2656.00
2023-05-05T03:25:32.109Z,2647.00
2023-05-05T03:26:32.140Z,2656.00
2023-05-05T03:27:32.200Z,2661.00
2023-05-05T03:28:32.187Z,2657.00
2023-05-05T03:29:32.186Z,2654.00
2023-05-05T03:30:32.205Z,2658.00
2023-05-05T03:31:32.252Z,2657.00
2023-05-05T03:32:32.368Z,2661.00
2023-05-05T03:33:32.264Z,2675.00
2023-05-05T03:34:32.292Z,2659.00
2023-05-05T03:35:32.291Z,2678.00
2023-05-05T03:36:32.314Z,2676.00
2023-05-05T03:37:32.333Z,2685.00
2023-05-05T03:38:32.382Z,2681.00
2023-05-05T03:39:32.399Z,2697.00
2023-05-05T03:40:43.011Z,2700.00
2023-05-05T03:41:33.425Z,2701.00
2023-05-05T03:42:32.407Z,2703.00
2023-05-05T03:43:32.416Z,2706.00
2023-05-05T03:44:32.398Z,2707.00
2023-05-05T03:45:32.461Z,2696.00
2023-05-05T03:46:32.350Z,2717.00
2023-05-05T03:47:32.395Z,2703.00
2023-05-05T03:48:32.370Z,2675.00
2023-05-05T03:49:32.328Z,2675.00
2023-05-05T03:50:32.322Z,2655.00
2023-05-05T03:51:32.371Z,2678.00
2023-05-05T03:52:32.337Z,2693.00
2023-05-05T03:53:32.338Z,2690.00
2023-05-05T03:54:32.327Z,2705.00
2023-05-05T03:55:32.372Z,2686.00
2023-05-05T03:56:32.283Z,2700.00
2023-05-05T03:57:32.384Z,2683.00
2023-05-05T03:58:32.362Z,2686.00
2023-05-05T03:59:32.331Z,2679.00
2023-05-05T04:00:32.271Z,2684.00
2023-05-05T04:01:32.302Z,2652.00
2023-05-05T04:02:32.394Z,2647.00
2023-05-05T04:03:32.394Z,2657.00
2023-05-05T04:04:32.339Z,2669.00
2023-05-05T04:05:32.285Z,2656.00
2023-05-05T04:06:32.254Z,2663.00
2023-05-05T04:07:32.231Z,2651.00
2023-05-05T04:08:32.231Z,2614.00
2023-05-05T04:09:32.217Z,2607.00
2023-05-05T04:10:32.245Z,2615.00
2023-05-05T04:11:32.257Z,2601.00
2023-05-05T04:12:32.294Z,2607.00
2023-05-05T04:13:32.318Z,2614.00
2023-05-05T04:14:32.310Z,2609.00
2023-05-05T04:15:32.309Z,2593.00
2023-05-05T04:16:32.351Z,2598.00
2023-05-05T04:17:32.330Z,2615.00
2023-05-05T04:18:32.333Z,2635.00
2023-05-05T04:19:32.369Z,2648.00
2023-05-05T04:20:32.390Z,2641.00
2023-05-05T04:21:32.457Z,2635.00
2023-05-05T04:22:32.456Z,2633.00
2023-05-05T04:23:32.553Z,2572.00
2023-05-05T04:24:32.613Z,2592.00
2023-05-05T04:25:32.559Z,2587.00
2023-05-05T04:26:32.610Z,2575.00
2023-05-05T04:27:32.638Z,2587.00
2023-05-05T04:28:32.597Z,2597.00
2023-05-05T04:29:32.627Z,2607.00
2023-05-05T04:30:32.653Z,2565.00
2023-05-05T04:31:32.740Z,2580.00
2023-05-05T04:32:32.748Z,2576.00
2023-05-05T04:33:32.684Z,2546.00
2023-05-05T04:34:32.707Z,2573.00
2023-05-05T04:35:32.753Z,2536.00
2023-05-05T04:36:32.758Z,2536.00
2023-05-05T04:37:32.777Z,2538.00
2023-05-05T04:38:32.902Z,2508.00
2023-05-05T04:39:32.814Z,2530.00
2023-05-05T04:40:32.872Z,2545.00
2023-05-05T04:41:32.886Z,2535.00
2023-05-05T04:42:32.910Z,2531.00
2023-05-05T04:43:32.939Z,2499.00
2023-05-05T04:44:32.937Z,2538.00
2023-05-05T04:45:32.988Z,2529.00
2023-05-05T04:46:33.084Z,2536.00
2023-05-05T04:47:33.057Z,2507.00
2023-05-05T04:48:33.081Z,2530.00
2023-05-05T04:49:33.118Z,2516.00
2023-05-05T04:50:33.126Z,2494.00
2023-05-05T04:51:33.149Z,2513.00
2023-05-05T04:52:33.187Z,2501.00
2023-05-05T04:53:33.208Z,2486.00
2023-05-05T04:54:33.224Z,2485.00
2023-05-05T04:55:33.277Z,2472.00
2023-05-05T04:56:33.308Z,2493.00
2023-05-05T04:57:33.341Z,2490.00
2023-05-05T04:58:33.362Z,2518.00
2023-05-05T04:59:33.391Z,2500.00
2023-05-05T05:00:33.440Z,2509.00
2023-05-05T05:01:34.353Z,2509.00
2023-05-05T05:02:33.700Z,2545.00
2023-05-05T05:03:33.803Z,2573.00
2023-05-05T05:04:33.562Z,2554.00
2023-05-05T05:05:33.607Z,2547.00
2023-05-05T05:06:33.586Z,2547.00
2023-05-05T05:07:33.627Z,2558.00
2023-05-05T05:08:33.643Z,2557.00
2023-05-05T05:09:33.659Z,2568.00
2023-05-05T05:10:33.623Z,2579.00
2023-05-05T05:11:33.678Z,2571.00
2023-05-05T05:12:33.727Z,2563.00
2023-05-05T05:13:33.775Z,2578.00
2023-05-05T05:14:33.754Z,2554.00
2023-05-05T05:15:33.797Z,2522.00
2023-05-05T05:16:33.883Z,2516.00
2023-05-05T05:17:33.904Z,2555.00
2023-05-05T05:18:33.924Z,2574.00
2023-05-05T05:19:33.971Z,2568.00
2023-05-05T05:20:34.020Z,2565.00
2023-05-05T05:21:34.069Z,2538.00
2023-05-05T05:22:34.107Z,2516.00
2023-05-05T05:23:34.176Z,2501.00
2023-05-05T05:24:34.199Z,2515.00
2023-05-05T05:25:34.275Z,2529.00
2023-05-05T05:26:34.621Z,2534.00
2023-05-05T05:27:34.364Z,2543.00
2023-05-05T05:28:34.443Z,2550.00
2023-05-05T05:29:34.531Z,2543.00
2023-05-05T05:30:34.543Z,2518.00
2023-05-05T05:31:34.689Z,2554.00
2023-05-05T05:32:34.755Z,2562.00
2023-05-05T05:33:35.104Z,2581.00
2023-05-05T05:34:34.800Z,2648.00
2023-05-05T05:35:34.836Z,2702.00
2023-05-05T05:36:34.902Z,2687.00
2023-05-05T05:37:34.958Z,2708.00
2023-05-05T05:38:35.031Z,2747.00
2023-05-05T05:39:35.107Z,2765.00
2023-05-05T05:40:35.158Z,2820.00
2023-05-05T05:41:35.197Z,2857.00
2023-05-05T05:42:35.247Z,2853.00
2023-05-05T05:43:35.622Z,2888.00
2023-05-05T05:44:35.350Z,2920.00
2023-05-05T05:45:35.406Z,2975.00
2023-05-05T05:46:35.557Z,3008.00
2023-05-05T05:47:35.547Z,3076.00
2023-05-05T05:48:35.602Z,3083.00
2023-05-05T05:49:35.600Z,3129.00
2023-05-05T05:50:35.636Z,3149.00
2023-05-05T05:51:35.672Z,3140.00
2023-05-05T05:52:35.724Z,3109.00
2023-05-05T05:53:35.769Z,3133.00
2023-05-05T05:54:35.812Z,3140.00
2023-05-05T05:55:35.836Z,3159.00
2023-05-05T05:56:35.888Z,3173.00
2023-05-05T05:57:35.919Z,3169.00
2023-05-05T05:58:35.958Z,3269.00
2023-05-05T05:59:35.966Z,3346.00
2023-05-05T06:00:36.015Z,3332.00
2023-05-05T06:01:36.040Z,3314.00
2023-05-05T06:02:36.208Z,3292.00
2023-05-05T06:03:36.200Z,3310.00
2023-05-05T06:04:36.339Z,3363.00
2023-05-05T06:05:36.195Z,3329.00
2023-05-05T06:06:36.204Z,3339.00
2023-05-05T06:07:36.221Z,3329.00
2023-05-05T06:08:36.630Z,3345.00
2023-05-05T06:09:36.266Z,3335.00
2023-05-05T06:10:36.306Z,3371.00
2023-05-05T06:11:36.329Z,3385.00
2023-05-05T06:12:36.362Z,3374.00
2023-05-05T06:13:36.377Z,3373.00
2023-05-05T06:14:36.388Z,3388.00
2023-05-05T06:15:36.442Z,3395.00
2023-05-05T06:16:36.454Z,3416.00
2023-05-05T06:17:36.480Z,3429.00
2023-05-05T06:18:36.617Z,3425.00
2023-05-05T06:19:36.505Z,3422.00
2023-05-05T06:20:36.493Z,3426.00
2023-05-05T06:21:36.531Z,3441.00
2023-05-05T06:22:36.586Z,3468.00
2023-05-05T06:23:36.603Z,3499.00
2023-05-05T06:24:36.567Z,3517.00
2023-05-05T06:25:36.584Z,3496.00
2023-05-05T06:26:36.587Z,3502.00
2023-05-05T06:27:36.653Z,3517.00
2023-05-05T06:28:36.626Z,3532.00
2023-05-05T06:29:36.617Z,3494.00
2023-05-05T06:30:36.638Z,3511.00
2023-05-05T06:31:37.197Z,3740.00
2023-05-05T06:32:36.687Z,3737.00
2023-05-05T06:33:36.678Z,3578.00
2023-05-05T06:34:36.673Z,3500.00
2023-05-05T06:35:36.695Z,3637.00
2023-05-05T06:36:36.703Z,3590.00
2023-05-05T06:37:36.686Z,3552.00
2023-05-05T06:38:36.703Z,3558.00
2023-05-05T06:39:36.716Z,3576.00
2023-05-05T06:40:36.707Z,3571.00
2023-05-05T06:41:36.698Z,3608.00
2023-05-05T06:42:36.699Z,3580.00
2023-05-05T06:43:37.152Z,3605.00
2023-05-05T06:44:36.691Z,3618.00
2023-05-05T06:45:36.696Z,3616.00
2023-05-05T06:46:37.182Z,3612.00
2023-05-05T06:47:36.702Z,3619.00
2023-05-05T06:48:36.679Z,3602.00
2023-05-05T06:49:36.696Z,3560.00
2023-05-05T06:50:36.716Z,3559.00
2023-05-05T06:51:36.736Z,3581.00
2023-05-05T06:52:36.799Z,3582.00
2023-05-05T06:53:37.154Z,3572.00
2023-05-05T06:54:36.845Z,3571.00
2023-05-05T06:55:36.883Z,3526.00
2023-05-05T06:56:36.934Z,3540.00
2023-05-05T06:57:36.995Z,3550.00
2023-05-05T06:58:37.063Z,3554.00
2023-05-05T06:59:37.110Z,3580.00
2023-05-05T07:00:37.202Z,3552.00
2023-05-05T07:01:37.205Z,3605.00
2023-05-05T07:02:37.324Z,3689.00
2023-05-05T07:03:37.363Z,3609.00
2023-05-05T07:04:37.390Z,3557.00
2023-05-05T07:05:37.449Z,3399.00
2023-05-05T07:06:37.459Z,3312.00
2023-05-05T07:07:37.487Z,3288.00
2023-05-05T07:08:37.858Z,3299.00
2023-05-05T07:09:37.591Z,3326.00
2023-05-05T07:10:37.838Z,3316.00
2023-05-05T07:11:38.167Z,3350.00
2023-05-05T07:12:37.767Z,3367.00
2023-05-05T07:13:37.762Z,3324.00
2023-05-05T07:14:37.795Z,3309.00
2023-05-05T07:15:37.852Z,3295.00
2023-05-05T07:16:37.960Z,3281.00
2023-05-05T07:17:38.008Z,3287.00
2023-05-05T07:18:38.009Z,3321.00
2023-05-05T07:19:38.083Z,3338.00
2023-05-05T07:20:38.133Z,3355.00
2023-05-05T07:21:38.208Z,3341.00
2023-05-05T07:22:38.281Z,3302.00
2023-05-05T07:23:38.346Z,3187.00
2023-05-05T07:24:38.477Z,3186.00
2023-05-05T07:25:38.483Z,3240.00
2023-05-05T07:26:38.496Z,3146.00
2023-05-05T07:27:38.566Z,3087.00
2023-05-05T07:28:38.672Z,3030.00
2023-05-05T07:29:38.664Z,2970.00
2023-05-05T07:30:38.657Z,3004.00
2023-05-05T07:31:39.196Z,3062.00
2023-05-05T07:32:38.742Z,3041.00
2023-05-05T07:33:38.787Z,3004.00
2023-05-05T07:34:38.817Z,2870.00
2023-05-05T07:35:39.050Z,2929.00
2023-05-05T07:36:38.965Z,3078.00
2023-05-05T07:37:39.007Z,3060.00
2023-05-05T07:38:39.073Z,3044.00
2023-05-05T07:39:39.160Z,3052.00
2023-05-05T07:40:39.388Z,3060.00
2023-05-05T07:41:39.266Z,3024.00
2023-05-05T07:42:39.316Z,2908.00
2023-05-05T07:43:39.607Z,2876.00
2023-05-05T07:44:39.466Z,2977.00
2023-05-05T07:45:39.532Z,2968.00
2023-05-05T07:46:39.689Z,3010.00
2023-05-05T07:47:39.730Z,3079.00
2023-05-05T07:48:39.675Z,3105.00
2023-05-05T07:49:39.718Z,3128.00
2023-05-05T07:50:39.756Z,3154.00
2023-05-05T07:51:39.822Z,3153.00
2023-05-05T07:53:40.168Z,3161.00
2023-05-05T07:54:39.871Z,3112.00
2023-05-05T07:55:39.848Z,3105.00
2023-05-05T07:56:39.897Z,3140.00
2023-05-05T07:57:39.830Z,3084.00
2023-05-05T07:58:39.860Z,3034.00
2023-05-05T07:59:39.813Z,3059.00
2023-05-05T08:00:39.834Z,3089.00
2023-05-05T08:01:39.822Z,3080.00
2023-05-05T08:02:39.825Z,3113.00
2023-05-05T08:03:39.910Z,3083.00
2023-05-05T08:04:39.831Z,3108.00
2023-05-05T08:05:39.785Z,3089.00
2023-05-05T08:06:39.767Z,3033.00
2023-05-05T08:07:39.760Z,3079.00
2023-05-05T08:08:39.758Z,3132.00
2023-05-05T08:09:40.187Z,3078.00
2023-05-05T08:10:39.747Z,3127.00
2023-05-05T08:11:39.747Z,3131.00
2023-05-05T08:12:39.816Z,3139.00
2023-05-05T08:13:39.716Z,3158.00
2023-05-05T08:14:39.729Z,3159.00
2023-05-05T08:15:39.738Z,3138.00
2023-05-05T08:16:39.713Z,3161.00
2023-05-05T08:17:39.736Z,3166.00
2023-05-05T08:18:39.733Z,3197.00
2023-05-05T08:19:40.186Z,3177.00
2023-05-05T08:20:39.675Z,3161.00
2023-05-05T08:21:39.683Z,3014.00
2023-05-05T08:22:39.662Z,2864.00
2023-05-05T08:23:39.664Z,1912.00
2023-05-05T08:24:39.655Z,1522.00
2023-05-05T08:25:39.672Z,1322.00
2023-05-05T08:26:39.638Z,896.00
2023-05-05T08:27:39.660Z,645.00
2023-05-05T08:28:39.697Z,588.00
2023-05-05T08:29:39.614Z,617.00
2023-05-05T08:30:39.675Z,589.00
2023-05-05T08:31:39.665Z,492.00
2023-05-05T08:32:39.645Z,523.00
2023-05-05T08:33:39.593Z,520.00
2023-05-05T08:34:39.576Z,455.00
2023-05-05T08:35:39.569Z,474.00
2023-05-05T08:36:39.585Z,498.00
2023-05-05T08:37:39.602Z,511.00
2023-05-05T08:38:39.661Z,527.00
2023-05-05T08:39:39.703Z,618.00
2023-05-05T08:40:39.757Z,787.00
2023-05-05T08:41:39.805Z,933.00
2023-05-05T08:42:40.228Z,1232.00
2023-05-05T08:43:39.878Z,1254.00
2023-05-05T08:44:39.929Z,1153.00
2023-05-05T08:45:39.956Z,1226.00
2023-05-05T08:46:40.008Z,1280.00
2023-05-05T08:47:40.306Z,1466.00
2023-05-05T08:48:39.988Z,1432.00
2023-05-05T08:49:40.003Z,1563.00
2023-05-05T08:50:40.005Z,1463.00
2023-05-05T08:51:40.010Z,1610.00
2023-05-05T08:52:40.118Z,1758.00
2023-05-05T08:53:40.039Z,1684.00
2023-05-05T08:54:40.247Z,1859.00
2023-05-05T08:55:40.012Z,1726.00
2023-05-05T08:56:39.997Z,1449.00
2023-05-05T08:57:40.009Z,1483.00
2023-05-05T08:58:39.993Z,1612.00
2023-05-05T08:59:39.988Z,1793.00
2023-05-05T09:00:40.165Z,1685.00
2023-05-05T09:01:39.966Z,1604.00
2023-05-05T09:02:40.081Z,1715.00
2023-05-05T09:03:39.959Z,1677.00
2023-05-05T09:04:39.962Z,1699.00
2023-05-05T09:05:39.963Z,1898.00
2023-05-05T09:06:39.970Z,1991.00
2023-05-05T09:07:39.960Z,2056.00
2023-05-05T09:08:39.976Z,2043.00
2023-05-05T09:09:40.006Z,1996.00
2023-05-05T09:10:40.019Z,2084.00
2023-05-05T09:11:40.021Z,1981.00
2023-05-05T09:12:40.063Z,1894.00
2023-05-05T09:13:40.090Z,1875.00
2023-05-05T09:14:40.116Z,1815.00
2023-05-05T09:15:40.166Z,1875.00
2023-05-05T09:16:40.387Z,1980.00
2023-05-05T09:17:40.299Z,1974.00
2023-05-05T09:18:40.313Z,1899.00
2023-05-05T09:19:40.394Z,1903.00
2023-05-05T09:20:40.453Z,2026.00
2023-05-05T09:21:40.539Z,2035.00
2023-05-05T09:22:40.594Z,2067.00
2023-05-05T09:23:40.633Z,2073.00
2023-05-05T09:24:40.713Z,2173.00
2023-05-05T09:25:40.778Z,2204.00
2023-05-05T09:26:40.832Z,1824.00
2023-05-05T09:27:40.874Z,1277.00
2023-05-05T09:28:40.917Z,788.00
2023-05-05T09:29:40.898Z,659.00
2023-05-05T09:30:40.963Z,610.00
2023-05-05T09:31:40.899Z,552.00
2023-05-05T09:32:41.356Z,580.00
2023-05-05T09:33:40.947Z,638.00
2023-05-05T09:34:40.954Z,720.00
2023-05-05T09:35:40.961Z,811.00
2023-05-05T09:36:40.956Z,943.00
2023-05-05T09:37:40.977Z,817.00
2023-05-05T09:38:40.960Z,741.00
2023-05-05T09:39:40.965Z,809.00
2023-05-05T09:40:40.968Z,950.00
2023-05-05T09:41:40.977Z,937.00
2023-05-05T09:42:40.992Z,1026.00
2023-05-05T09:43:40.969Z,962.00
2023-05-05T09:44:40.988Z,783.00
2023-05-05T09:45:40.981Z,879.00
2023-05-05T09:46:41.038Z,1081.00
2023-05-05T09:47:41.007Z,910.00
2023-05-05T09:48:41.053Z,1067.00
2023-05-05T09:49:40.983Z,1036.00
2023-05-05T09:50:40.983Z,1144.00
2023-05-05T09:51:40.962Z,676.00
2023-05-05T09:52:40.998Z,828.00
2023-05-05T09:53:40.958Z,779.00
2023-05-05T09:54:40.941Z,708.00
2023-05-05T09:55:40.950Z,692.00
2023-05-05T09:56:40.945Z,625.00
2023-05-05T09:57:40.939Z,627.00
2023-05-05T09:58:40.965Z,604.00
2023-05-05T09:59:40.910Z,605.00
2023-05-05T10:00:40.921Z,573.00
2023-05-05T10:01:40.956Z,542.00
2023-05-05T10:02:40.925Z,608.00
2023-05-05T10:03:40.896Z,491.00
2023-05-05T10:04:41.355Z,510.00
2023-05-05T10:05:40.889Z,472.00
2023-05-05T10:06:40.885Z,526.00
2023-05-05T10:07:40.924Z,545.00
2023-05-05T10:08:40.898Z,466.00
2023-05-05T10:09:40.910Z,500.00
2023-05-05T10:10:40.896Z,507.00
2023-05-05T10:11:40.909Z,500.00
2023-05-05T10:12:41.031Z,559.00
2023-05-05T10:13:40.922Z,607.00
2023-05-05T10:14:40.929Z,579.00
2023-05-05T10:15:40.922Z,486.00
2023-05-05T10:16:41.015Z,400.00
2023-05-05T10:17:47.915Z,400.00
2023-05-05T10:18:41.967Z,400.00
2023-05-05T10:19:40.934Z,409.00
2023-05-05T10:20:41.009Z,400.00
2023-05-05T10:21:42.031Z,400.00
2023-05-05T10:22:40.892Z,400.00
2023-05-05T10:23:42.145Z,400.00
2023-05-05T10:24:40.903Z,438.00
2023-05-05T10:25:40.872Z,529.00
2023-05-05T10:26:40.887Z,592.00
2023-05-05T10:27:40.894Z,626.00
2023-05-05T10:28:40.868Z,634.00
2023-05-05T10:29:40.867Z,750.00
2023-05-05T10:30:40.855Z,938.00
2023-05-05T10:31:40.894Z,1064.00
2023-05-05T10:32:53.186Z,848.00
2023-05-05T10:33:42.369Z,852.00
2023-05-05T10:34:40.890Z,870.00
2023-05-05T10:35:40.825Z,879.00
2023-05-05T10:36:41.053Z,847.00
2023-05-05T10:37:40.824Z,684.00
2023-05-05T10:38:40.800Z,498.00
2023-05-05T10:39:40.809Z,528.00
2023-05-05T10:40:40.789Z,585.00
2023-05-05T10:41:40.781Z,624.00
2023-05-05T10:42:40.757Z,549.00
2023-05-05T10:43:40.788Z,593.00
2023-05-05T10:44:40.762Z,615.00
2023-05-05T10:45:40.848Z,573.00
2023-05-05T10:46:40.894Z,494.00
2023-05-05T10:47:40.764Z,447.00
2023-05-05T10:48:40.787Z,417.00
2023-05-05T10:49:40.751Z,467.00
2023-05-05T10:50:40.743Z,632.00
2023-05-05T10:51:41.287Z,803.00
2023-05-05T10:52:40.932Z,700.00
2023-05-05T10:53:40.807Z,619.00
2023-05-05T10:54:40.850Z,632.00
2023-05-05T10:55:40.845Z,722.00
2023-05-05T10:56:40.880Z,759.00
2023-05-05T10:57:40.889Z,971.00
2023-05-05T10:58:58.436Z,1131.00
2023-05-05T10:59:42.286Z,1135.00
2023-05-05T11:00:40.889Z,1039.00
2023-05-05T11:01:40.876Z,1007.00
2023-05-05T11:02:40.977Z,1015.00
2023-05-05T11:03:40.900Z,907.00
2023-05-05T11:04:40.856Z,879.00
2023-05-05T11:05:40.859Z,840.00
2023-05-05T11:06:40.838Z,918.00
2023-05-05T11:07:40.825Z,924.00
2023-05-05T11:08:40.885Z,992.00
2023-05-05T11:09:41.266Z,1115.00
2023-05-05T11:10:40.822Z,1153.00
2023-05-05T11:11:40.834Z,1230.00
2023-05-05T11:12:40.842Z,1220.00
2023-05-05T11:13:40.809Z,1251.00
2023-05-05T11:14:41.268Z,1370.00
2023-05-05T11:15:40.775Z,1507.00
2023-05-05T11:16:40.844Z,1324.00
2023-05-05T11:17:40.824Z,1312.00
2023-05-05T11:18:40.773Z,1390.00
2023-05-05T11:19:41.264Z,1452.00
2023-05-05T11:20:40.779Z,1546.00
2023-05-05T11:21:40.758Z,1628.00
2023-05-05T11:22:40.756Z,1749.00
2023-05-05T11:23:40.746Z,1706.00
2023-05-05T11:24:40.959Z,1753.00
2023-05-05T11:25:41.016Z,1862.00
2023-05-05T11:26:40.707Z,2115.00
2023-05-05T11:27:40.708Z,2203.00
2023-05-05T11:28:40.698Z,2325.00
2023-05-05T11:29:40.721Z,2390.00
2023-05-05T11:30:40.695Z,2428.00
2023-05-05T11:31:40.889Z,2487.00
2023-05-05T11:32:40.676Z,2525.00
2023-05-05T11:33:40.733Z,2612.00
2023-05-05T11:34:40.802Z,2639.00
2023-05-05T11:35:40.814Z,2716.00
2023-05-05T11:36:40.874Z,2739.00
2023-05-05T11:37:40.907Z,2759.00
2023-05-05T11:38:40.940Z,2857.00
2023-05-05T11:39:41.004Z,2822.00
2023-05-05T11:40:41.172Z,2783.00
2023-05-05T11:41:41.090Z,2812.00
2023-05-05T11:42:41.123Z,2840.00
2023-05-05T11:43:41.168Z,2847.00
2023-05-05T11:44:41.196Z,2856.00
2023-05-05T11:45:41.207Z,2889.00
2023-05-05T11:46:41.416Z,2880.00
2023-05-05T11:47:41.265Z,2864.00
2023-05-05T11:48:41.261Z,2881.00
2023-05-05T11:49:41.303Z,2879.00
2023-05-05T11:50:41.317Z,2997.00
2023-05-05T11:51:41.349Z,2946.00
2023-05-05T11:52:41.352Z,2936.00
2023-05-05T11:53:41.384Z,3016.00
2023-05-05T11:54:41.418Z,2945.00
2023-05-05T11:55:41.413Z,2957.00
2023-05-05T11:56:41.537Z,2997.00
2023-05-05T11:57:41.444Z,2976.00
2023-05-05T11:58:41.479Z,2975.00
2023-05-05T11:59:41.490Z,2941.00
2023-05-05T12:00:41.481Z,2968.00
2023-05-05T12:01:41.523Z,3058.00
2023-05-05T12:02:41.564Z,3008.00
2023-05-05T12:03:41.640Z,2982.00
2023-05-05T12:04:41.583Z,2999.00
2023-05-05T12:05:41.588Z,2996.00
2023-05-05T12:06:41.614Z,2966.00
2023-05-05T12:07:41.627Z,2970.00
2023-05-05T12:08:41.668Z,2952.00
2023-05-05T12:09:41.646Z,2958.00
2023-05-05T12:10:41.689Z,2967.00